createdAt,value
2017-10-12T00:01:31.204Z,0.00
2017-10-12T00:02:31.247Z,0.00
2017-10-12T00:04:24.238Z,0.00
2017-10-12T00:05:24.299Z,0.00
2017-10-12T00:07:17.307Z,0.00
2017-10-12T00:08:17.356Z,0.00
2017-10-12T00:10:10.847Z,0.00
2017-10-12T00:11:10.907Z,0.00
2017-10-12T00:13:03.919Z,0.00
2017-10-12T00:14:03.965Z,0.00
2017-10-12T00:15:56.971Z,0.00
2017-10-12T00:16:57.013Z,0.00
2017-10-12T00:18:50.004Z,0.00
2017-10-12T00:19:50.067Z,0.00
2017-10-12T00:21:43.076Z,0.00
2017-10-12T00:22:43.119Z,0.00
2017-10-12T00:24:36.109Z,0.00
2017-10-12T00:25:36.169Z,0.00
2017-10-12T00:27:29.177Z,0.00
2017-10-12T00:28:29.219Z,0.00
2017-10-12T00:30:22.214Z,0.00
2017-10-12T00:31:22.271Z,0.00
2017-10-12T00:33:15.302Z,0.00
2017-10-12T00:34:15.319Z,0.00
2017-10-12T00:36:08.329Z,0.00
2017-10-12T00:37:08.373Z,0.00
2017-10-12T00:39:01.378Z,0.00
2017-10-12T00:40:01.422Z,0.00
2017-10-12T00:41:54.437Z,0.00
2017-10-12T00:42:54.472Z,0.00
2017-10-12T00:44:47.462Z,0.00
2017-10-12T00:45:47.524Z,0.00
2017-10-12T00:47:40.532Z,0.00
2017-10-12T00:48:40.573Z,0.00
2017-10-12T00:50:33.586Z,0.00
2017-10-12T00:51:33.625Z,0.00
2017-10-12T00:53:26.615Z,0.00
2017-10-12T00:54:26.676Z,0.00
2017-10-12T00:56:19.686Z,0.00
2017-10-12T00:57:19.726Z,0.00
2017-10-12T00:59:12.718Z,0.00
2017-10-12T01:00:12.785Z,0.00
2017-10-12T01:02:05.835Z,0.00
2017-10-12T01:03:05.831Z,0.00
2017-10-12T01:04:58.821Z,0.00
2017-10-12T01:05:58.882Z,0.00
2017-10-12T01:07:51.890Z,0.00
2017-10-12T01:08:51.937Z,0.00
2017-10-12T01:10:45.456Z,0.00
2017-10-12T01:11:45.488Z,0.00
2017-10-12T01:13:38.479Z,0.00
2017-10-12T01:14:38.537Z,0.00
2017-10-12T01:16:31.544Z,0.00
2017-10-12T01:17:31.586Z,0.00
2017-10-12T01:19:24.577Z,0.00
2017-10-12T01:20:24.635Z,0.00
2017-10-12T01:22:17.644Z,0.00
2017-10-12T01:23:17.696Z,0.00
2017-10-12T01:25:10.674Z,0.00
2017-10-12T01:26:10.734Z,0.00
2017-10-12T01:28:03.749Z,0.00
2017-10-12T01:29:03.792Z,0.00
2017-10-12T01:30:56.800Z,0.00
2017-10-12T01:31:56.843Z,0.00
2017-10-12T01:33:49.832Z,0.00
2017-10-12T01:34:49.890Z,0.00
2017-10-12T01:36:42.899Z,0.00
2017-10-12T01:37:42.941Z,0.00
2017-10-12T01:39:35.931Z,0.00
2017-10-12T01:40:35.990Z,0.00
2017-10-12T01:42:29.001Z,0.00
2017-10-12T01:43:29.043Z,0.00
2017-10-12T01:45:22.033Z,0.00
2017-10-12T01:46:22.091Z,0.00
2017-10-12T01:48:15.099Z,0.00
2017-10-12T01:49:15.141Z,0.00
2017-10-12T01:51:08.147Z,0.00
2017-10-12T01:52:08.202Z,0.00
2017-10-12T01:54:01.179Z,0.00
2017-10-12T01:55:01.237Z,0.00
2017-10-12T01:56:54.244Z,0.00
2017-10-12T01:57:54.289Z,0.00
2017-10-12T01:59:47.276Z,0.00
2017-10-12T02:00:47.335Z,0.00
2017-10-12T02:02:40.345Z,0.00
2017-10-12T02:03:40.384Z,0.00
2017-10-12T02:05:33.374Z,0.00
2017-10-12T02:06:33.433Z,0.00
2017-10-12T02:08:26.446Z,0.00
2017-10-12T02:09:26.491Z,0.00
2017-10-12T02:11:19.500Z,0.00
2017-10-12T02:12:19.542Z,0.00
2017-10-12T02:14:12.531Z,0.00
2017-10-12T02:15:12.591Z,0.00
2017-10-12T02:17:05.598Z,0.00
2017-10-12T02:18:05.645Z,0.00
2017-10-12T02:19:58.628Z,0.00
2017-10-12T02:20:58.688Z,0.00
2017-10-12T02:22:51.700Z,0.00
2017-10-12T02:23:51.744Z,0.00
2017-10-12T02:25:44.730Z,0.00
2017-10-12T02:26:44.796Z,0.00
2017-10-12T02:28:37.796Z,0.00
2017-10-12T02:29:37.837Z,0.00
2017-10-12T02:31:30.844Z,0.00
2017-10-12T02:32:30.885Z,0.00
2017-10-12T02:34:23.875Z,0.00
2017-10-12T02:35:23.933Z,0.00
2017-10-12T02:37:16.940Z,0.00
2017-10-12T02:38:16.990Z,0.00
2017-10-12T02:40:09.972Z,0.00
2017-10-12T02:41:10.029Z,0.00
2017-10-12T02:43:03.039Z,0.00
2017-10-12T02:44:03.081Z,0.00
2017-10-12T02:45:56.072Z,0.00
2017-10-12T02:46:56.133Z,0.00
2017-10-12T02:48:49.149Z,0.00
2017-10-12T02:49:49.189Z,0.00
2017-10-12T02:51:42.204Z,0.00
2017-10-12T02:52:42.246Z,0.00
2017-10-12T02:54:35.237Z,0.00
2017-10-12T02:55:35.306Z,0.00
2017-10-12T02:57:28.308Z,0.00
2017-10-12T02:58:28.348Z,0.00
2017-10-12T03:00:21.340Z,0.00
2017-10-12T03:01:21.402Z,0.00
2017-10-12T03:03:14.410Z,0.00
2017-10-12T03:04:14.473Z,0.00
2017-10-12T03:06:07.442Z,0.00
2017-10-12T03:07:07.502Z,0.00
2017-10-12T03:09:00.516Z,0.00
2017-10-12T03:10:00.556Z,0.00
2017-10-12T03:11:53.569Z,0.00
2017-10-12T03:12:53.609Z,0.00
2017-10-12T03:14:46.610Z,0.00
2017-10-12T03:15:46.661Z,0.00
2017-10-12T03:17:39.671Z,0.00
2017-10-12T03:18:39.713Z,0.00
2017-10-12T03:20:32.702Z,0.00
2017-10-12T03:21:32.762Z,0.00
2017-10-12T03:23:25.769Z,0.00
2017-10-12T03:24:25.812Z,0.00
2017-10-12T03:26:18.816Z,0.00
2017-10-12T03:27:18.862Z,0.00
2017-10-12T03:29:11.871Z,0.00
2017-10-12T03:30:11.914Z,0.00
2017-10-12T03:32:04.922Z,0.00
2017-10-12T03:33:04.965Z,0.00
2017-10-12T03:34:57.954Z,0.00
2017-10-12T03:35:58.013Z,0.00
2017-10-12T03:37:51.033Z,0.00
2017-10-12T03:38:51.063Z,0.00
2017-10-12T03:40:44.054Z,0.00
2017-10-12T03:41:44.116Z,0.00
2017-10-12T03:43:37.131Z,0.00
2017-10-12T03:44:37.175Z,0.00
2017-10-12T03:46:30.166Z,0.00
2017-10-12T03:47:30.228Z,0.00
2017-10-12T03:49:23.236Z,0.00
2017-10-12T03:50:23.277Z,0.00
2017-10-12T03:52:16.286Z,0.00
2017-10-12T03:53:16.326Z,0.00
2017-10-12T03:55:09.318Z,0.00
2017-10-12T03:56:09.379Z,0.00
2017-10-12T03:58:02.387Z,0.00
2017-10-12T03:59:02.429Z,0.00
2017-10-12T04:00:55.418Z,0.00
2017-10-12T04:01:55.479Z,0.00
2017-10-12T04:03:48.489Z,0.00
2017-10-12T04:04:48.533Z,0.00
2017-10-12T04:06:41.524Z,0.00
2017-10-12T04:07:41.579Z,0.00
2017-10-12T04:09:34.587Z,0.00
2017-10-12T04:10:34.629Z,0.00
2017-10-12T04:12:27.637Z,0.00
2017-10-12T04:13:27.676Z,0.00
2017-10-12T04:15:20.667Z,0.00
2017-10-12T04:16:20.724Z,0.00
2017-10-12T04:18:13.734Z,0.00
2017-10-12T04:19:13.777Z,0.00
2017-10-12T04:21:06.766Z,0.00
2017-10-12T04:22:06.825Z,0.00
2017-10-12T04:23:59.837Z,0.00
2017-10-12T04:24:59.874Z,0.00
2017-10-12T04:26:52.865Z,0.00
2017-10-12T04:27:52.930Z,0.00
2017-10-12T04:29:45.975Z,0.00
2017-10-12T04:30:45.988Z,0.00
2017-10-12T04:32:39.001Z,0.00
2017-10-12T04:33:39.046Z,0.00
2017-10-12T04:35:32.036Z,0.00
2017-10-12T04:36:32.106Z,0.00
2017-10-12T04:38:25.112Z,0.00
2017-10-12T04:39:25.147Z,0.00
2017-10-12T04:41:18.138Z,0.00
2017-10-12T04:42:18.195Z,0.00
2017-10-12T04:44:11.214Z,0.00
2017-10-12T04:45:11.248Z,0.00
2017-10-12T04:47:04.235Z,0.00
2017-10-12T04:48:04.293Z,0.00
2017-10-12T04:49:57.300Z,0.00
2017-10-12T04:50:57.380Z,0.00
2017-10-12T04:52:50.350Z,0.00
2017-10-12T04:53:50.395Z,0.00
2017-10-12T04:55:43.377Z,0.00
2017-10-12T04:56:43.438Z,0.00
2017-10-12T04:58:36.446Z,0.00
2017-10-12T04:59:36.492Z,0.00
2017-10-12T05:01:29.477Z,0.00
2017-10-12T05:02:29.536Z,0.00
2017-10-12T05:04:22.544Z,0.00
2017-10-12T05:05:22.583Z,0.00
2017-10-12T05:07:15.574Z,0.00
2017-10-12T05:08:15.632Z,0.00
2017-10-12T05:10:09.155Z,0.00
2017-10-12T05:11:09.189Z,0.00
2017-10-12T05:13:02.195Z,0.00
2017-10-12T05:14:02.238Z,0.00
2017-10-12T05:15:55.226Z,0.00
2017-10-12T05:16:55.286Z,0.00
2017-10-12T05:18:48.295Z,4.00
2017-10-12T05:19:48.335Z,4.00
2017-10-12T05:21:41.325Z,4.00
2017-10-12T05:22:41.394Z,4.00
2017-10-12T05:24:34.391Z,4.00
2017-10-12T05:25:34.431Z,8.00
2017-10-12T05:27:27.422Z,12.00
2017-10-12T05:28:27.481Z,12.00
2017-10-12T05:30:20.490Z,20.00
2017-10-12T05:31:20.528Z,24.00
2017-10-12T05:33:13.535Z,28.00
2017-10-12T05:34:13.576Z,28.00
2017-10-12T05:36:06.565Z,32.00
2017-10-12T05:37:06.624Z,32.00
2017-10-12T05:38:59.632Z,48.00
2017-10-12T05:39:59.672Z,60.00
2017-10-12T05:41:52.663Z,80.00
2017-10-12T05:42:52.720Z,80.00
2017-10-12T05:44:45.732Z,116.00
2017-10-12T05:45:45.772Z,128.00
2017-10-12T05:47:38.763Z,172.00
2017-10-12T05:48:38.820Z,196.00
2017-10-12T05:50:31.830Z,256.00
2017-10-12T05:51:31.869Z,268.00
2017-10-12T05:53:24.877Z,356.00
2017-10-12T05:54:24.918Z,368.00
2017-10-12T05:56:17.908Z,484.00
2017-10-12T05:57:17.966Z,584.00
2017-10-12T05:59:10.974Z,804.00
2017-10-12T06:00:11.026Z,920.00
2017-10-12T06:02:04.005Z,1104.00
2017-10-12T06:03:04.064Z,1160.00
2017-10-12T06:04:57.070Z,1240.00
2017-10-12T06:05:57.111Z,1088.00
2017-10-12T06:07:50.119Z,1016.00
2017-10-12T06:08:50.160Z,1120.00
2017-10-12T06:10:43.680Z,1328.00
2017-10-12T06:11:43.715Z,1336.00
2017-10-12T06:13:36.723Z,1428.00
2017-10-12T06:14:36.765Z,1548.00
2017-10-12T06:16:29.758Z,1576.00
2017-10-12T06:17:29.821Z,1648.00
2017-10-12T06:19:22.828Z,1808.00
2017-10-12T06:20:22.868Z,1936.00
2017-10-12T06:22:15.864Z,2064.00
2017-10-12T06:23:15.924Z,2092.00
2017-10-12T06:25:08.927Z,1784.00
2017-10-12T06:26:08.967Z,1788.00
2017-10-12T06:28:01.996Z,1912.00
2017-10-12T06:29:02.015Z,1936.00
2017-10-12T06:30:55.004Z,1908.00
2017-10-12T06:31:55.068Z,1868.00
2017-10-12T06:33:48.073Z,1808.00
2017-10-12T06:34:48.118Z,1824.00
2017-10-12T06:36:41.103Z,1924.00
2017-10-12T06:37:41.165Z,1984.00
2017-10-12T06:39:34.170Z,2084.00
2017-10-12T06:40:34.211Z,2140.00
2017-10-12T06:42:27.201Z,2096.00
2017-10-12T06:43:27.258Z,2068.00
2017-10-12T06:45:20.266Z,2204.00
2017-10-12T06:46:20.307Z,2260.00
2017-10-12T06:48:13.344Z,2352.00
2017-10-12T06:49:13.355Z,2372.00
2017-10-12T06:51:06.344Z,2500.00
2017-10-12T06:52:06.404Z,2572.00
2017-10-12T06:53:59.418Z,2552.00
2017-10-12T06:54:59.466Z,2684.00
2017-10-12T06:56:52.446Z,2752.00
2017-10-12T06:57:52.503Z,2732.00
2017-10-12T06:59:45.552Z,2712.00
2017-10-12T07:00:45.552Z,2736.00
2017-10-12T07:02:38.541Z,2708.00
2017-10-12T07:03:38.598Z,2988.00
2017-10-12T07:05:31.607Z,3324.00
2017-10-12T07:06:31.647Z,4040.00
2017-10-12T07:08:24.679Z,4712.00
2017-10-12T07:09:24.698Z,4956.00
2017-10-12T07:11:17.691Z,5020.00
2017-10-12T07:12:17.748Z,4888.00
2017-10-12T07:14:10.757Z,4612.00
2017-10-12T07:15:10.795Z,4952.00
2017-10-12T07:17:03.787Z,4716.00
2017-10-12T07:18:03.845Z,4628.00
2017-10-12T07:19:56.855Z,4044.00
2017-10-12T07:20:56.895Z,3984.00
2017-10-12T07:22:49.885Z,3512.00
2017-10-12T07:23:49.944Z,3664.00
2017-10-12T07:25:42.954Z,3368.00
2017-10-12T07:26:42.994Z,3296.00
2017-10-12T07:28:35.984Z,2988.00
2017-10-12T07:29:36.044Z,3084.00
2017-10-12T07:31:29.054Z,3128.00
2017-10-12T07:32:29.094Z,3764.00
2017-10-12T07:34:22.101Z,4112.00
2017-10-12T07:35:22.141Z,4068.00
2017-10-12T07:37:15.138Z,4072.00
2017-10-12T07:38:15.203Z,4140.00
2017-10-12T07:40:08.213Z,4248.00
2017-10-12T07:41:08.254Z,4332.00
2017-10-12T07:43:01.244Z,4288.00
2017-10-12T07:44:01.303Z,4324.00
2017-10-12T07:45:54.317Z,4612.00
2017-10-12T07:46:54.361Z,4904.00
2017-10-12T07:48:47.351Z,5436.00
2017-10-12T07:49:47.418Z,5684.00
2017-10-12T07:51:40.424Z,5912.00
2017-10-12T07:52:40.467Z,5840.00
2017-10-12T07:54:33.479Z,5476.00
2017-10-12T07:55:33.518Z,5188.00
2017-10-12T07:57:26.513Z,4928.00
2017-10-12T07:58:26.574Z,5016.00
2017-10-12T08:00:19.581Z,5268.00
2017-10-12T08:01:19.626Z,5488.00
2017-10-12T08:03:12.615Z,6300.00
2017-10-12T08:04:12.675Z,6872.00
2017-10-12T08:06:05.693Z,7960.00
2017-10-12T08:07:05.727Z,8312.00
2017-10-12T08:08:58.716Z,8784.00
2017-10-12T08:09:58.777Z,9460.00
2017-10-12T08:11:51.788Z,10612.00
2017-10-12T08:12:51.829Z,10216.00
2017-10-12T08:14:44.838Z,11656.00
2017-10-12T08:15:44.880Z,12236.00
2017-10-12T08:17:37.870Z,10336.00
2017-10-12T08:18:37.933Z,9444.00
2017-10-12T08:20:30.941Z,8544.00
2017-10-12T08:21:30.983Z,7968.00
2017-10-12T08:23:23.975Z,7232.00
2017-10-12T08:24:24.034Z,7068.00
2017-10-12T08:26:17.047Z,6672.00
2017-10-12T08:27:17.100Z,5808.00
2017-10-12T08:29:10.082Z,5548.00
2017-10-12T08:30:10.143Z,5988.00
2017-10-12T08:32:03.157Z,7008.00
2017-10-12T08:33:03.199Z,7476.00
2017-10-12T08:34:56.211Z,8628.00
2017-10-12T08:35:56.252Z,9188.00
2017-10-12T08:37:49.243Z,12316.00
2017-10-12T08:38:49.307Z,10072.00
2017-10-12T08:40:42.318Z,11504.00
2017-10-12T08:41:42.363Z,12592.00
2017-10-12T08:43:35.368Z,13728.00
2017-10-12T08:44:35.431Z,13548.00
2017-10-12T08:46:28.447Z,9412.00
2017-10-12T08:47:28.490Z,8480.00
2017-10-12T08:49:21.489Z,8328.00
2017-10-12T08:50:21.554Z,8656.00
2017-10-12T08:52:14.559Z,8168.00
2017-10-12T08:53:14.601Z,6764.00
2017-10-12T08:55:07.618Z,4188.00
2017-10-12T08:56:07.663Z,5080.00
2017-10-12T08:58:00.659Z,4300.00
2017-10-12T08:59:00.722Z,4696.00
2017-10-12T09:00:53.734Z,4940.00
2017-10-12T09:01:53.779Z,5136.00
2017-10-12T09:03:46.771Z,5804.00
2017-10-12T09:04:46.837Z,5724.00
2017-10-12T09:06:39.856Z,5564.00
2017-10-12T09:07:39.891Z,5264.00
2017-10-12T09:09:32.888Z,5680.00
2017-10-12T09:10:32.951Z,6168.00
2017-10-12T09:12:25.967Z,9208.00
2017-10-12T09:13:26.012Z,7668.00
2017-10-12T09:15:19.022Z,6752.00
2017-10-12T09:16:19.065Z,8448.00
2017-10-12T09:18:12.057Z,5916.00
2017-10-12T09:19:12.120Z,5660.00
2017-10-12T09:21:05.134Z,8424.00
2017-10-12T09:22:05.178Z,8648.00
2017-10-12T09:23:58.178Z,12480.00
2017-10-12T09:24:58.240Z,12480.00
2017-10-12T09:26:51.249Z,9212.00
2017-10-12T09:27:51.299Z,12016.00
2017-10-12T09:29:44.305Z,14552.00
2017-10-12T09:30:44.351Z,10772.00
2017-10-12T09:32:37.376Z,7580.00
2017-10-12T09:33:37.407Z,5756.00
2017-10-12T09:35:30.421Z,6440.00
2017-10-12T09:36:30.468Z,9664.00
2017-10-12T09:38:23.459Z,9396.00
2017-10-12T09:39:23.524Z,8084.00
2017-10-12T09:41:16.540Z,8548.00
2017-10-12T09:42:16.578Z,9024.00
2017-10-12T09:44:09.574Z,9372.00
2017-10-12T09:45:09.639Z,11668.00
2017-10-12T09:47:02.651Z,10628.00
2017-10-12T09:48:02.695Z,9824.00
2017-10-12T09:49:55.706Z,9240.00
2017-10-12T09:50:55.751Z,8580.00
2017-10-12T09:52:48.741Z,9360.00
2017-10-12T09:53:48.803Z,9132.00
2017-10-12T09:55:41.821Z,10632.00
2017-10-12T09:56:41.870Z,10900.00
2017-10-12T09:58:34.863Z,12576.00
2017-10-12T09:59:34.928Z,13440.00
2017-10-12T10:01:27.939Z,10988.00
2017-10-12T10:02:27.983Z,9144.00
2017-10-12T10:04:20.975Z,9028.00
2017-10-12T10:05:21.038Z,10336.00
2017-10-12T10:07:14.051Z,10196.00
2017-10-12T10:08:14.094Z,9596.00
2017-10-12T10:10:07.126Z,10596.00
2017-10-12T10:11:07.150Z,11412.00
2017-10-12T10:13:00.146Z,11664.00
2017-10-12T10:14:00.212Z,10916.00
2017-10-12T10:15:53.222Z,9396.00
2017-10-12T10:16:53.264Z,9596.00
2017-10-12T10:18:46.257Z,9920.00
2017-10-12T10:19:46.322Z,9880.00
2017-10-12T10:21:39.339Z,11516.00
2017-10-12T10:22:39.383Z,11288.00
2017-10-12T10:24:32.375Z,10700.00
2017-10-12T10:25:32.438Z,9980.00
2017-10-12T10:27:25.488Z,8012.00
2017-10-12T10:28:25.495Z,8192.00
2017-10-12T10:30:18.513Z,9216.00
2017-10-12T10:31:18.555Z,8828.00
2017-10-12T10:33:11.653Z,9452.00
2017-10-12T10:34:11.677Z,9492.00
2017-10-12T10:36:04.693Z,8444.00
2017-10-12T10:37:04.736Z,8936.00
2017-10-12T10:38:57.731Z,11040.00
2017-10-12T10:39:57.796Z,8992.00
2017-10-12T10:41:50.806Z,7664.00
2017-10-12T10:42:50.851Z,9896.00
2017-10-12T10:44:43.846Z,11404.00
2017-10-12T10:45:43.910Z,12872.00
2017-10-12T10:47:36.928Z,10472.00
2017-10-12T10:48:36.968Z,9848.00
2017-10-12T10:50:29.978Z,6372.00
2017-10-12T10:51:30.023Z,7848.00
2017-10-12T10:53:23.015Z,9476.00
2017-10-12T10:54:23.078Z,9436.00
2017-10-12T10:56:16.095Z,9220.00
2017-10-12T10:57:16.138Z,8932.00
2017-10-12T10:59:09.135Z,8580.00
2017-10-12T11:00:09.195Z,8900.00
2017-10-12T11:02:02.221Z,8476.00
2017-10-12T11:03:02.252Z,7212.00
2017-10-12T11:04:55.244Z,4904.00
2017-10-12T11:05:55.310Z,6180.00
2017-10-12T11:07:48.322Z,5328.00
2017-10-12T11:08:48.365Z,5256.00
2017-10-12T11:10:41.890Z,5648.00
2017-10-12T11:11:41.928Z,7352.00
2017-10-12T11:13:34.925Z,9068.00
2017-10-12T11:14:34.983Z,8684.00
2017-10-12T11:16:27.999Z,8440.00
2017-10-12T11:17:28.042Z,7780.00
2017-10-12T11:19:21.034Z,7668.00
2017-10-12T11:20:21.098Z,8796.00
2017-10-12T11:22:14.113Z,7380.00
2017-10-12T11:23:14.158Z,7784.00
2017-10-12T11:25:07.149Z,8960.00
2017-10-12T11:26:07.211Z,9320.00
2017-10-12T11:28:00.227Z,9708.00
2017-10-12T11:29:00.270Z,9836.00
2017-10-12T11:30:53.285Z,10280.00
2017-10-12T11:31:53.326Z,10188.00
2017-10-12T11:33:46.321Z,10024.00
2017-10-12T11:34:46.385Z,9504.00
2017-10-12T11:36:39.400Z,9428.00
2017-10-12T11:37:39.445Z,9352.00
2017-10-12T11:39:32.441Z,9144.00
2017-10-12T11:40:32.503Z,9328.00
2017-10-12T11:42:25.513Z,9424.00
2017-10-12T11:43:25.557Z,9824.00
2017-10-12T11:45:18.551Z,9676.00
2017-10-12T11:46:18.616Z,9908.00
2017-10-12T11:48:11.628Z,10148.00
2017-10-12T11:49:11.672Z,9936.00
2017-10-12T11:51:04.691Z,10508.00
2017-10-12T11:52:04.731Z,10600.00
2017-10-12T11:53:57.723Z,9272.00
2017-10-12T11:54:57.787Z,8928.00
2017-10-12T11:56:50.798Z,7948.00
2017-10-12T11:57:50.841Z,8020.00
2017-10-12T11:59:43.837Z,9108.00
2017-10-12T12:00:43.901Z,9288.00
2017-10-12T12:02:36.914Z,9160.00
2017-10-12T12:03:36.962Z,9812.00
2017-10-12T12:05:29.951Z,10032.00
2017-10-12T12:06:30.013Z,10112.00
2017-10-12T12:08:23.027Z,10236.00
2017-10-12T12:09:23.072Z,10340.00
2017-10-12T12:11:16.594Z,9928.00
2017-10-12T12:12:16.636Z,9612.00
2017-10-12T12:14:09.629Z,9440.00
2017-10-12T12:15:09.693Z,9560.00
2017-10-12T12:17:02.705Z,9728.00
2017-10-12T12:18:02.751Z,9812.00
2017-10-12T12:19:55.745Z,10340.00
2017-10-12T12:20:55.806Z,10680.00
2017-10-12T12:22:48.822Z,11068.00
2017-10-12T12:23:48.867Z,10888.00
2017-10-12T12:25:41.861Z,10036.00
2017-10-12T12:26:41.925Z,9632.00
2017-10-12T12:28:34.941Z,8840.00
2017-10-12T12:29:34.983Z,8680.00
2017-10-12T12:31:27.998Z,7976.00
2017-10-12T12:32:28.042Z,7760.00
2017-10-12T12:34:21.042Z,7268.00
2017-10-12T12:35:21.099Z,7616.00
2017-10-12T12:37:14.111Z,7684.00
2017-10-12T12:38:14.156Z,7904.00
2017-10-12T12:40:07.148Z,7900.00
2017-10-12T12:41:07.212Z,7180.00
2017-10-12T12:43:00.228Z,8568.00
2017-10-12T12:44:00.273Z,8692.00
2017-10-12T12:45:53.263Z,9604.00
2017-10-12T12:46:53.329Z,9748.00
2017-10-12T12:48:46.342Z,9632.00
2017-10-12T12:49:46.384Z,9468.00
2017-10-12T12:51:39.398Z,9336.00
2017-10-12T12:52:39.441Z,9356.00
2017-10-12T12:54:32.438Z,9456.00
2017-10-12T12:55:32.506Z,9484.00
2017-10-12T12:57:25.514Z,9348.00
2017-10-12T12:58:25.558Z,9276.00
2017-10-12T13:00:18.551Z,9044.00
2017-10-12T13:01:18.614Z,8640.00
2017-10-12T13:03:11.630Z,8320.00
2017-10-12T13:04:11.675Z,8272.00
2017-10-12T13:06:04.668Z,8088.00
2017-10-12T13:07:04.729Z,8068.00
2017-10-12T13:08:57.742Z,7832.00
2017-10-12T13:09:57.785Z,7680.00
2017-10-12T13:11:50.799Z,7500.00
2017-10-12T13:12:50.843Z,7448.00
2017-10-12T13:14:43.836Z,7344.00
2017-10-12T13:15:43.900Z,7248.00
2017-10-12T13:17:36.915Z,6964.00
2017-10-12T13:18:36.957Z,6808.00
2017-10-12T13:20:29.955Z,6708.00
2017-10-12T13:21:30.017Z,6560.00
2017-10-12T13:23:23.027Z,5756.00
2017-10-12T13:24:23.071Z,5140.00
2017-10-12T13:26:16.064Z,4828.00
2017-10-12T13:27:16.128Z,4900.00
2017-10-12T13:29:09.146Z,4688.00
2017-10-12T13:30:09.185Z,4416.00
2017-10-12T13:32:02.200Z,4304.00
2017-10-12T13:33:02.247Z,3900.00
2017-10-12T13:34:55.238Z,3784.00
2017-10-12T13:35:55.304Z,4100.00
2017-10-12T13:37:48.322Z,3932.00
2017-10-12T13:38:48.364Z,3568.00
2017-10-12T13:40:41.359Z,3876.00
2017-10-12T13:41:41.423Z,3788.00
2017-10-12T13:43:34.442Z,3540.00
2017-10-12T13:44:34.482Z,3528.00
2017-10-12T13:46:27.477Z,3664.00
2017-10-12T13:47:27.541Z,3828.00
2017-10-12T13:49:20.555Z,3796.00
2017-10-12T13:50:20.598Z,4708.00
2017-10-12T13:52:13.608Z,4368.00
2017-10-12T13:53:13.650Z,4496.00
2017-10-12T13:55:06.644Z,4728.00
2017-10-12T13:56:06.706Z,4300.00
2017-10-12T13:57:59.720Z,3808.00
2017-10-12T13:58:59.762Z,4948.00
2017-10-12T14:00:52.755Z,4952.00
2017-10-12T14:01:52.815Z,4820.00
2017-10-12T14:03:45.839Z,3756.00
2017-10-12T14:04:45.873Z,4412.00
2017-10-12T14:06:38.866Z,3556.00
2017-10-12T14:07:39.001Z,3504.00
2017-10-12T14:09:31.945Z,3856.00
2017-10-12T14:10:31.991Z,4088.00
2017-10-12T14:12:24.999Z,3536.00
2017-10-12T14:13:25.045Z,3604.00
2017-10-12T14:15:18.038Z,3364.00
2017-10-12T14:16:18.099Z,3304.00
2017-10-12T14:18:11.227Z,3344.00
2017-10-12T14:19:11.156Z,3264.00
2017-10-12T14:21:04.149Z,3108.00
2017-10-12T14:22:04.210Z,3200.00
2017-10-12T14:23:57.227Z,2888.00
2017-10-12T14:24:57.267Z,3028.00
2017-10-12T14:26:50.259Z,2896.00
2017-10-12T14:27:50.321Z,2908.00
2017-10-12T14:29:43.331Z,3556.00
2017-10-12T14:30:43.375Z,3004.00
2017-10-12T14:32:36.388Z,2696.00
2017-10-12T14:33:36.428Z,2584.00
2017-10-12T14:35:29.429Z,2496.00
2017-10-12T14:36:29.485Z,2456.00
2017-10-12T14:38:22.494Z,3192.00
2017-10-12T14:39:22.537Z,3176.00
2017-10-12T14:41:15.527Z,3556.00
2017-10-12T14:42:15.590Z,2868.00
2017-10-12T14:44:08.607Z,2908.00
2017-10-12T14:45:08.644Z,2912.00
2017-10-12T14:47:01.638Z,2904.00
2017-10-12T14:48:01.695Z,2916.00
2017-10-12T14:49:54.708Z,2844.00
2017-10-12T14:50:54.755Z,2796.00
2017-10-12T14:52:47.761Z,2704.00
2017-10-12T14:53:47.806Z,2672.00
2017-10-12T14:55:40.797Z,2660.00
2017-10-12T14:56:40.863Z,2644.00
2017-10-12T14:58:33.869Z,2544.00
2017-10-12T14:59:33.923Z,2480.00
2017-10-12T15:01:26.905Z,2372.00
2017-10-12T15:02:26.971Z,2324.00
2017-10-12T15:04:19.982Z,2280.00
2017-10-12T15:05:20.023Z,2348.00
2017-10-12T15:07:13.015Z,2408.00
2017-10-12T15:08:13.078Z,2444.00
2017-10-12T15:10:06.127Z,2440.00
2017-10-12T15:11:06.143Z,2444.00
2017-10-12T15:12:59.158Z,2428.00
2017-10-12T15:13:59.200Z,2404.00
2017-10-12T15:15:52.204Z,2436.00
2017-10-12T15:16:52.257Z,2404.00
2017-10-12T15:18:45.266Z,2320.00
2017-10-12T15:19:45.310Z,2244.00
2017-10-12T15:21:38.316Z,2256.00
2017-10-12T15:22:38.368Z,2612.00
2017-10-12T15:24:31.397Z,1980.00
2017-10-12T15:25:31.438Z,1996.00
2017-10-12T15:27:24.432Z,2076.00
2017-10-12T15:28:24.494Z,2136.00
2017-10-12T15:30:17.507Z,2356.00
2017-10-12T15:31:17.547Z,2496.00
2017-10-12T15:33:10.603Z,2688.00
2017-10-12T15:34:10.601Z,2736.00
2017-10-12T15:36:03.602Z,2728.00
2017-10-12T15:37:03.656Z,2668.00
2017-10-12T15:38:56.676Z,2528.00
2017-10-12T15:39:56.716Z,2452.00
2017-10-12T15:41:49.716Z,2320.00
2017-10-12T15:42:49.781Z,2280.00
2017-10-12T15:44:42.792Z,2196.00
2017-10-12T15:45:42.836Z,2096.00
2017-10-12T15:47:35.829Z,1848.00
2017-10-12T15:48:35.896Z,1732.00
2017-10-12T15:50:28.907Z,1644.00
2017-10-12T15:51:28.947Z,1652.00
2017-10-12T15:53:21.958Z,1688.00
2017-10-12T15:54:21.999Z,1688.00
2017-10-12T15:56:15.005Z,1588.00
2017-10-12T15:57:15.082Z,1528.00
2017-10-12T15:59:08.075Z,1400.00
2017-10-12T16:00:08.135Z,1356.00
2017-10-12T16:02:01.122Z,1288.00
2017-10-12T16:03:01.180Z,1268.00
2017-10-12T16:04:54.199Z,1240.00
2017-10-12T16:05:54.243Z,1236.00
2017-10-12T16:07:47.242Z,1256.00
2017-10-12T16:08:47.322Z,1268.00
2017-10-12T16:10:40.317Z,1236.00
2017-10-12T16:11:40.371Z,1164.00
2017-10-12T16:13:33.408Z,968.00
2017-10-12T16:14:33.432Z,872.00
2017-10-12T16:16:26.423Z,736.00
2017-10-12T16:17:26.511Z,680.00
2017-10-12T16:19:19.510Z,592.00
2017-10-12T16:20:19.538Z,552.00
2017-10-12T16:22:12.556Z,476.00
2017-10-12T16:23:12.609Z,444.00
2017-10-12T16:25:05.655Z,384.00
2017-10-12T16:26:05.658Z,360.00
2017-10-12T16:27:58.670Z,312.00
2017-10-12T16:28:58.739Z,288.00
2017-10-12T16:30:51.746Z,256.00
2017-10-12T16:31:51.790Z,240.00
2017-10-12T16:33:44.811Z,208.00
2017-10-12T16:34:44.844Z,196.00
2017-10-12T16:36:37.834Z,164.00
2017-10-12T16:39:30.945Z,136.00
2017-10-12T16:40:30.985Z,124.00
2017-10-12T16:42:23.954Z,108.00
2017-10-12T16:43:24.023Z,104.00
2017-10-12T16:45:17.022Z,88.00
2017-10-12T16:46:17.071Z,80.00
2017-10-12T16:48:10.051Z,64.00
2017-10-12T16:49:10.113Z,56.00
2017-10-12T16:51:03.126Z,48.00
2017-10-12T16:52:03.164Z,40.00
2017-10-12T16:53:56.173Z,32.00
2017-10-12T16:54:56.215Z,28.00
2017-10-12T16:56:49.203Z,20.00
2017-10-12T16:57:49.270Z,16.00
2017-10-12T16:59:42.280Z,12.00
2017-10-12T17:00:42.317Z,12.00
2017-10-12T17:02:35.310Z,8.00
2017-10-12T17:03:35.368Z,4.00
2017-10-12T17:05:28.377Z,4.00
2017-10-12T17:06:28.421Z,8.00
2017-10-12T17:08:21.408Z,0.00
2017-10-12T17:09:21.474Z,4.00
2017-10-12T17:11:14.491Z,0.00
2017-10-12T17:12:14.543Z,0.00
2017-10-12T17:14:07.546Z,4.00
2017-10-12T17:15:07.590Z,0.00
2017-10-12T17:17:00.581Z,0.00
2017-10-12T17:18:00.642Z,0.00
2017-10-12T17:19:53.650Z,0.00
2017-10-12T17:20:53.699Z,0.00
2017-10-12T17:22:46.685Z,0.00
2017-10-12T17:25:39.754Z,0.00
2017-10-12T17:26:39.798Z,0.00
2017-10-12T17:28:32.787Z,0.00
2017-10-12T17:29:32.845Z,0.00
2017-10-12T17:31:25.856Z,0.00
2017-10-12T17:32:25.895Z,0.00
2017-10-12T17:34:18.916Z,0.00
2017-10-12T17:35:18.944Z,0.00
2017-10-12T17:37:11.937Z,0.00
2017-10-12T17:38:11.998Z,0.00
2017-10-12T17:40:05.037Z,0.00
2017-10-12T17:41:05.053Z,0.00
2017-10-12T17:42:58.038Z,0.00
2017-10-12T17:43:58.106Z,0.00
2017-10-12T17:45:51.182Z,0.00
2017-10-12T17:46:51.147Z,0.00
2017-10-12T17:48:44.133Z,0.00
2017-10-12T17:49:44.195Z,0.00
2017-10-12T17:51:37.204Z,0.00
2017-10-12T17:52:37.264Z,0.00
2017-10-12T17:54:37.236Z,0.00
2017-10-12T17:55:30.298Z,0.00
2017-10-12T17:57:23.292Z,0.00
2017-10-12T17:58:23.355Z,0.00
2017-10-12T18:00:16.381Z,0.00
2017-10-12T18:01:16.403Z,0.00
2017-10-12T18:03:09.415Z,0.00
2017-10-12T18:04:09.461Z,0.00
2017-10-12T18:06:02.482Z,0.00
2017-10-12T18:07:02.525Z,0.00